Time;durP1;ratioP1;P1;durP2;ratioP2;P2;SDS_P1;SDS_P2;PMS_P1;PMS_P2;Temp;Humidity;BMP_temperature;BMP_pressure;BME280_temperature;BME280_humidity;BME280_pressure;Samples;Min_cycle;Max_cycle;Signal;HPM_P1;HPM_P2
2022/06/28 00:04:15;;;;;;;2.95;1.80;;;18.70;95.10;;;;;;10510244;28;20556;-57
2022/06/28 00:09:15;;;;;;;2.63;1.70;;;18.70;95.10;;;;;;10513460;28;20396;-61
2022/06/28 00:19:36;;;;;;;2.88;1.70;;;18.60;95.10;;;;;;10509856;28;20040;-57
2022/06/28 00:24:37;;;;;;;2.20;1.60;;;18.60;95.10;;;;;;10516685;28;20025;-61
2022/06/28 00:29:37;;;;;;;1.83;1.67;;;18.60;95.10;;;;;;10515886;28;20040;-57
2022/06/28 00:34:38;;;;;;;1.80;1.63;;;18.50;95.00;;;;;;10503243;28;20046;-58
2022/06/28 00:39:39;;;;;;;2.60;1.70;;;18.50;95.00;;;;;;10513392;28;20035;-57
2022/06/28 00:44:40;;;;;;;2.60;1.70;;;18.50;95.00;;;;;;10511066;28;20028;-61
2022/06/28 00:49:42;;;;;;;1.98;1.70;;;18.50;95.00;;;;;;10518819;28;20040;-57
2022/06/28 00:54:43;;;;;;;1.90;1.70;;;18.50;95.00;;;;;;10514099;28;20103;-64
2022/06/28 00:59:43;;;;;;;2.10;1.60;;;18.50;95.00;;;;;;10511604;28;20839;-63
2022/06/28 01:04:44;;;;;;;2.65;2.28;;;18.40;94.90;;;;;;10515260;28;20101;-58
2022/06/28 01:09:45;;;;;;;2.00;1.60;;;18.40;94.90;;;;;;10506253;28;20047;-60
2022/06/28 01:14:46;;;;;;;2.08;1.60;;;18.40;94.90;;;;;;10510910;28;20557;-58
2022/06/28 01:19:46;;;;;;;2.58;1.60;;;18.40;95.10;;;;;;10508143;28;20047;-57
2022/06/28 01:24:47;;;;;;;5.15;2.05;;;18.30;94.80;;;;;;10509756;28;20103;-58
2022/06/28 01:29:49;;;;;;;2.50;1.60;;;18.30;94.80;;;;;;10505805;28;20043;-57
2022/06/28 01:34:50;;;;;;;2.47;1.40;;;18.30;94.80;;;;;;10512078;28;20054;-56
2022/06/28 01:39:50;;;;;;;3.28;1.90;;;18.30;94.80;;;;;;10509617;28;20042;-56
2022/06/28 01:44:52;;;;;;;2.25;1.80;;;18.30;95.00;;;;;;10504481;28;20021;-61
2022/06/28 01:49:54;;;;;;;2.85;1.58;;;18.20;94.70;;;;;;10507650;28;20039;-59
2022/06/28 01:54:54;;;;;;;3.00;1.90;;;18.20;94.70;;;;;;10508220;28;20029;-58
2022/06/28 01:59:55;;;;;;;2.03;1.60;;;18.20;94.70;;;;;;10510675;28;20023;-57
2022/06/28 02:04:56;;;;;;;4.30;1.75;;;18.20;94.70;;;;;;10507156;28;20580;-58
2022/06/28 02:09:57;;;;;;;2.33;1.70;;;18.20;94.70;;;;;;10505714;28;20043;-62
2022/06/28 02:14:57;;;;;;;2.35;1.58;;;18.10;94.60;;;;;;10508139;28;20028;-57
2022/06/28 02:19:58;;;;;;;2.65;1.63;;;18.10;94.60;;;;;;10509349;28;20052;-62
2022/06/28 02:24:59;;;;;;;3.20;1.80;;;18.10;94.60;;;;;;10506486;28;20035;-60
2022/06/28 02:30:00;;;;;;;1.80;1.50;;;18.10;94.60;;;;;;10511247;28;20040;-56
2022/06/28 02:40:23;;;;;;;3.28;1.77;;;18.00;94.50;;;;;;10512418;28;20036;-57
2022/06/28 02:45:32;;;;;;;2.92;1.63;;;18.00;94.50;;;;;;10511674;28;20053;-56
2022/06/28 02:50:32;;;;;;;1.88;1.60;;;18.00;94.50;;;;;;10510286;28;20036;-56
2022/06/28 02:55:33;;;;;;;2.17;1.50;;;17.90;94.50;;;;;;10507225;28;20111;-57
2022/06/28 03:00:34;;;;;;;3.92;1.90;;;18.00;94.40;;;;;;10505837;28;20043;-57
2022/06/28 03:05:35;;;;;;;5.15;1.60;;;17.90;94.40;;;;;;10511341;28;20027;-64
2022/06/28 03:10:36;;;;;;;2.83;1.60;;;17.90;94.40;;;;;;10499708;28;20040;-61
2022/06/28 03:15:36;;;;;;;2.33;1.48;;;17.90;94.40;;;;;;10506040;28;20348;-59
2022/06/28 03:20:37;;;;;;;1.98;1.50;;;17.90;94.40;;;;;;10503823;28;20060;-56
2022/06/28 03:25:39;;;;;;;2.95;1.60;;;17.90;94.40;;;;;;10498080;28;20059;-64
2022/06/28 03:30:42;;;;;;;1.73;1.50;;;17.90;94.40;;;;;;10506189;28;20032;-59
2022/06/28 03:35:43;;;;;;;1.92;1.27;;;17.80;94.30;;;;;;10499993;28;20393;-57
2022/06/28 03:40:44;;;;;;;2.38;1.33;;;17.80;94.30;;;;;;10489355;28;20024;-56
2022/06/28 03:45:45;;;;;;;2.03;1.45;;;17.80;94.30;;;;;;10415341;28;20033;-57
2022/06/28 03:50:45;;;;;;;2.00;1.25;;;17.60;94.20;;;;;;10409488;28;20079;-57
2022/06/28 03:55:46;;;;;;;2.20;1.40;;;17.80;94.20;;;;;;10407399;28;20029;-57
2022/06/28 04:00:47;;;;;;;1.40;1.20;;;17.80;94.20;;;;;;10417166;28;20024;-58
2022/06/28 04:05:48;;;;;;;3.45;1.52;;;17.80;94.20;;;;;;10418893;28;20480;-62
2022/06/28 04:10:48;;;;;;;2.38;1.23;;;17.80;94.20;;;;;;10420816;28;20051;-56
2022/06/28 04:15:49;;;;;;;1.88;1.20;;;17.70;94.10;;;;;;10416751;28;20023;-59
2022/06/28 04:20:50;;;;;;;2.33;1.55;;;17.70;94.10;;;;;;10419842;28;20048;-60
2022/06/28 04:25:51;;;;;;;2.53;1.58;;;17.70;94.10;;;;;;10418601;28;20392;-57
2022/06/28 04:30:51;;;;;;;2.50;1.33;;;17.70;94.10;;;;;;10424650;28;20983;-62
2022/06/28 04:35:52;;;;;;;1.83;1.27;;;17.70;94.10;;;;;;10414367;28;20109;-57
2022/06/28 04:40:53;;;;;;;2.25;1.50;;;17.70;94.10;;;;;;10419186;28;20117;-58
2022/06/28 04:45:54;;;;;;;3.53;1.42;;;17.70;94.00;;;;;;10418815;28;20476;-60
2022/06/28 04:50:55;;;;;;;3.13;1.40;;;17.70;94.00;;;;;;10421592;28;20457;-57
2022/06/28 04:55:55;;;;;;;2.30;1.40;;;17.70;94.00;;;;;;10421177;28;20109;-57
2022/06/28 05:00:56;;;;;;;2.75;1.50;;;17.70;94.00;;;;;;10413106;28;20059;-56
2022/06/28 05:05:57;;;;;;;1.92;1.50;;;17.70;94.00;;;;;;10412596;28;20134;-57
2022/06/28 05:10:58;;;;;;;2.00;1.45;;;17.70;94.00;;;;;;10414885;28;20581;-57
2022/06/28 05:15:58;;;;;;;4.88;1.50;;;17.70;94.00;;;;;;10417283;28;20968;-57
2022/06/28 05:20:59;;;;;;;1.55;1.15;;;17.70;94.00;;;;;;10414695;28;21000;-58
2022/06/28 05:26:00;;;;;;;1.55;1.10;;;17.70;94.00;;;;;;10418057;28;20854;-57
2022/06/28 05:31:01;;;;;;;1.67;1.20;;;17.50;93.90;;;;;;10414255;28;20044;-57
2022/06/28 05:36:02;;;;;;;2.53;1.63;;;17.70;94.00;;;;;;10414671;28;20025;-56
2022/06/28 05:41:03;;;;;;;1.63;1.20;;;17.70;94.00;;;;;;10425705;28;20105;-56
2022/06/28 05:46:04;;;;;;;2.58;1.30;;;17.70;94.00;;;;;;10412538;28;20966;-56
2022/06/28 05:51:04;;;;;;;2.88;1.40;;;17.70;94.00;;;;;;10415853;28;20044;-56
2022/06/28 05:56:05;;;;;;;3.35;1.27;;;17.70;94.00;;;;;;10409310;28;20427;-56
2022/06/28 06:01:06;;;;;;;2.83;1.23;;;17.70;94.00;;;;;;10412575;28;20024;-57
2022/06/28 06:06:07;;;;;;;3.10;1.50;;;17.70;94.10;;;;;;10415044;28;20036;-63
2022/06/28 06:11:07;;;;;;;2.75;1.05;;;17.70;94.00;;;;;;10417374;28;20156;-59
2022/06/28 06:16:08;;;;;;;3.30;1.10;;;17.70;94.00;;;;;;10418623;28;20036;-57
2022/06/28 06:21:09;;;;;;;4.55;1.20;;;17.70;94.00;;;;;;10412743;28;20518;-56
2022/06/28 06:26:10;;;;;;;1.67;1.10;;;17.80;94.10;;;;;;10418768;28;20040;-57
2022/06/28 06:31:12;;;;;;;3.20;1.00;;;17.80;94.00;;;;;;10421351;28;20043;-60
2022/06/28 06:36:13;;;;;;;1.50;1.10;;;17.80;94.00;;;;;;10414128;28;20143;-56
2022/06/28 06:41:14;;;;;;;1.30;1.05;;;17.80;94.00;;;;;;10417869;28;20336;-56
2022/06/28 06:46:14;;;;;;;3.33;1.20;;;17.80;93.90;;;;;;10416664;28;20033;-57
2022/06/28 06:51:15;;;;;;;2.10;0.93;;;17.80;93.90;;;;;;10423535;28;20295;-56
2022/06/28 06:56:16;;;;;;;3.05;0.95;;;17.90;94.10;;;;;;10423658;28;20040;-57
2022/06/28 07:01:16;;;;;;;2.95;0.80;;;17.90;93.90;;;;;;10414923;28;20024;-59
2022/06/28 07:06:17;;;;;;;1.98;0.80;;;17.90;93.90;;;;;;10415291;28;20103;-58
2022/06/28 07:11:18;;;;;;;1.35;0.90;;;17.70;93.80;;;;;;10419075;28;20072;-58
2022/06/28 07:16:19;;;;;;;2.00;0.80;;;17.90;93.90;;;;;;10415664;28;20047;-57
2022/06/28 07:21:19;;;;;;;3.97;0.90;;;18.00;93.90;;;;;;10414221;28;20729;-57
2022/06/28 07:26:20;;;;;;;5.93;1.60;;;18.00;93.80;;;;;;10414730;28;20054;-65
2022/06/28 07:31:21;;;;;;;4.05;1.70;;;18.10;93.90;;;;;;10418693;28;20900;-57
2022/06/28 07:36:22;;;;;;;8.45;1.52;;;18.00;94.40;;;;;;10431754;28;20055;-60
2022/06/28 07:41:23;;;;;;;12.02;2.58;;;17.90;94.70;;;;;;10425692;28;20553;-61
2022/06/28 07:46:24;;;;;;;7.10;2.38;;;18.00;95.00;;;;;;10414924;28;20036;-60
2022/06/28 07:56:44;;;;;;;6.57;2.47;;;18.10;95.20;;;;;;10417663;28;20047;-61
2022/06/28 08:01:46;;;;;;;7.25;3.15;;;18.20;95.10;;;;;;10415392;28;20445;-63
2022/06/28 08:06:47;;;;;;;7.28;2.70;;;18.30;95.00;;;;;;10419123;28;20036;-59
2022/06/28 08:11:47;;;;;;;7.25;2.25;;;18.50;94.80;;;;;;10415609;28;20038;-59
2022/06/28 08:16:48;;;;;;;5.93;1.40;;;18.70;94.50;;;;;;10429004;28;20594;-59
2022/06/28 08:21:50;;;;;;;8.23;2.53;;;18.70;94.20;;;;;;10428428;28;20071;-59
2022/06/28 08:26:52;;;;;;;6.28;1.83;;;18.70;94.00;;;;;;10425860;28;20405;-59
2022/06/28 08:31:53;;;;;;;6.88;1.50;;;18.80;93.80;;;;;;10431150;28;20814;-59
2022/06/28 08:36:54;;;;;;;3.67;1.45;;;18.80;93.40;;;;;;10432238;28;20035;-59
2022/06/28 08:41:55;;;;;;;3.55;1.17;;;18.80;93.20;;;;;;10422919;28;20035;-58
2022/06/28 08:46:56;;;;;;;5.05;1.70;;;18.90;92.90;;;;;;10420527;28;21024;-59
2022/06/28 08:51:57;;;;;;;5.65;1.40;;;18.90;92.50;;;;;;10421586;28;20107;-59
2022/06/28 08:56:58;;;;;;;4.45;1.58;;;18.80;92.40;;;;;;10416518;28;20078;-60
2022/06/28 09:01:59;;;;;;;7.18;1.38;;;18.90;92.50;;;;;;10420191;28;20732;-59
2022/06/28 09:07:00;;;;;;;2.95;1.15;;;18.90;92.60;;;;;;10419790;28;20049;-59
2022/06/28 09:12:02;;;;;;;4.13;1.15;;;18.90;92.50;;;;;;10416350;28;20423;-59
2022/06/28 09:17:26;;;;;;;6.97;2.10;;;19.00;92.50;;;;;;10430419;28;20255;-60
2022/06/28 09:22:38;;;;;;;4.45;1.20;;;19.20;92.10;;;;;;10426519;28;20141;-64
2022/06/28 09:27:41;;;;;;;3.65;1.05;;;19.20;91.50;;;;;;10433005;28;20068;-63
2022/06/28 09:32:42;;;;;;;5.97;1.30;;;19.20;91.60;;;;;;10416543;28;20039;-59
2022/06/28 09:37:56;;;;;;;4.47;1.35;;;19.10;91.50;;;;;;10416712;28;20034;-60
2022/06/28 09:43:29;;;;;;;5.90;1.27;;;19.20;91.60;;;;;;10414911;28;20454;-60
2022/06/28 09:48:36;;;;;;;4.75;1.15;;;19.10;90.20;;;;;;10409865;28;20328;-59
2022/06/28 09:53:47;;;;;;;3.22;0.88;;;19.10;90.80;;;;;;10411100;28;20032;-59
2022/06/28 09:58:48;;;;;;;2.33;0.60;;;19.20;91.10;;;;;;10416684;28;20603;-62
2022/06/28 10:03:49;;;;;;;2.80;0.80;;;19.30;91.00;;;;;;10398450;28;20042;-59
2022/06/28 10:08:51;;;;;;;3.63;0.85;;;19.30;90.80;;;;;;10440570;28;20401;-60
2022/06/28 10:19:15;;;;;;;3.97;0.85;;;19.50;90.20;;;;;;10419981;28;20051;-64
2022/06/28 10:24:16;;;;;;;8.43;1.42;;;19.70;89.60;;;;;;10409432;28;20032;-59
2022/06/28 10:29:17;;;;;;;22.95;9.20;;;19.60;89.40;;;;;;10413632;28;20083;-57
2022/06/28 10:34:42;;;;;;;6.18;2.17;;;19.80;89.80;;;;;;10417007;28;20035;-58
2022/06/28 10:39:43;;;;;;;2.60;1.20;;;19.90;88.50;;;;;;10411785;28;20024;-61
2022/06/28 10:44:46;;;;;;;3.92;0.75;;;20.10;87.80;;;;;;10414929;28;20028;-58
2022/06/28 10:49:57;;;;;;;3.30;0.82;;;20.10;86.90;;;;;;10412465;28;20078;-58
2022/06/28 10:54:57;;;;;;;3.35;0.90;;;20.20;86.20;;;;;;10413627;28;20024;-59
2022/06/28 11:00:10;;;;;;;3.67;0.98;;;20.30;86.20;;;;;;10413713;28;20477;-61
2022/06/28 11:05:11;;;;;;;3.75;0.90;;;20.50;85.60;;;;;;10415406;28;20532;-63
2022/06/28 11:10:16;;;;;;;2.13;0.70;;;20.70;84.40;;;;;;10428609;28;20101;-64
2022/06/28 11:15:26;;;;;;;3.40;0.98;;;20.80;84.00;;;;;;10414563;28;20100;-58
2022/06/28 11:20:30;;;;;;;2.92;0.90;;;20.90;82.50;;;;;;10418133;28;20214;-58
2022/06/28 11:27:19;;;;;;;2.70;0.98;;;20.90;83.00;;;;;;10417012;28;20074;-59
2022/06/28 11:30:52;;;;;;;1.85;1.00;;;20.80;82.90;;;;;;10417236;28;20032;-61
2022/06/28 11:35:59;;;;;;;1.95;0.85;;;20.70;82.70;;;;;;10412710;28;20101;-60
2022/06/28 11:41:01;;;;;;;2.50;0.90;;;20.90;81.60;;;;;;10414769;28;20944;-61
2022/06/28 11:46:03;;;;;;;2.63;0.80;;;21.10;81.50;;;;;;10411999;28;20325;-63
2022/06/28 11:51:04;;;;;;;1.20;0.70;;;21.20;81.00;;;;;;10414155;28;20028;-60
2022/06/28 11:56:05;;;;;;;7.95;0.70;;;21.30;80.60;;;;;;10412848;28;20143;-60
2022/06/28 12:01:19;;;;;;;2.70;0.80;;;21.00;80.20;;;;;;10410527;28;20039;-60
2022/06/28 12:06:28;;;;;;;1.45;0.90;;;21.30;78.90;;;;;;10423504;28;20676;-62
2022/06/28 12:11:40;;;;;;;3.47;0.60;;;21.40;78.70;;;;;;10418173;28;20859;-60
2022/06/28 12:16:50;;;;;;;5.50;0.73;;;21.30;79.30;;;;;;10424597;28;20048;-63
2022/06/28 12:22:00;;;;;;;1.98;0.70;;;21.20;78.30;;;;;;10428392;28;20051;-61
2022/06/28 12:27:01;;;;;;;2.55;0.70;;;21.50;77.30;;;;;;10418426;28;20033;-62
2022/06/28 12:32:02;;;;;;;2.63;0.68;;;21.70;77.60;;;;;;10437582;28;20048;-62
2022/06/28 12:37:03;;;;;;;2.45;0.80;;;21.90;76.80;;;;;;10431360;28;20093;-62
2022/06/28 12:42:05;;;;;;;5.22;0.95;;;22.10;76.10;;;;;;10432120;28;20902;-68
2022/06/28 12:47:06;;;;;;;2.42;0.70;;;22.20;75.60;;;;;;10439953;28;20289;-61
2022/06/28 12:52:07;;;;;;;2.88;0.93;;;22.30;75.10;;;;;;10439806;28;20068;-62
2022/06/28 12:57:07;;;;;;;5.75;0.80;;;22.60;74.70;;;;;;10424168;28;20032;-64
2022/06/28 13:02:08;;;;;;;1.60;0.80;;;22.60;74.50;;;;;;10429583;28;20474;-61
2022/06/28 13:07:09;;;;;;;4.80;1.17;;;22.80;74.00;;;;;;10432230;28;20036;-61
2022/06/28 13:12:10;;;;;;;4.40;0.73;;;22.90;73.20;;;;;;10428584;28;20041;-61
2022/06/28 13:17:11;;;;;;;1.88;0.73;;;23.10;72.90;;;;;;10426648;28;20884;-66
2022/06/28 13:22:12;;;;;;;3.03;1.00;;;23.20;72.90;;;;;;10423598;28;20044;-64
2022/06/28 13:27:12;;;;;;;3.45;0.80;;;23.30;72.20;;;;;;10424122;28;20047;-57
2022/06/28 13:32:13;;;;;;;1.65;0.80;;;23.50;72.00;;;;;;10429256;28;20490;-69
2022/06/28 13:37:15;;;;;;;4.13;0.93;;;23.70;71.30;;;;;;10431426;28;21143;-58
2022/06/28 13:42:16;;;;;;;8.02;1.90;;;23.80;70.80;;;;;;10427378;28;21028;-56
2022/06/28 13:47:16;;;;;;;8.90;1.25;;;24.00;70.70;;;;;;10434943;28;20041;-67
2022/06/28 13:52:17;;;;;;;22.85;3.28;;;23.90;71.20;;;;;;10430417;28;20028;-56
2022/06/28 13:57:19;;;;;;;17.98;1.95;;;23.80;71.60;;;;;;10435221;28;20803;-57
2022/06/28 14:02:19;;;;;;;12.90;2.08;;;23.90;71.20;;;;;;10426164;28;20139;-62
2022/06/28 14:07:20;;;;;;;3.00;1.02;;;24.10;70.20;;;;;;10428152;28;20412;-60
2022/06/28 14:12:21;;;;;;;4.88;0.80;;;24.40;69.70;;;;;;10430100;28;20853;-58
2022/06/28 14:17:21;;;;;;;7.00;0.98;;;24.50;69.20;;;;;;10431603;28;20115;-62
2022/06/28 14:22:23;;;;;;;4.63;0.80;;;24.40;69.10;;;;;;10435089;28;20052;-58
2022/06/28 14:27:23;;;;;;;3.35;1.20;;;24.50;68.90;;;;;;10431072;28;21063;-57
2022/06/28 14:32:24;;;;;;;3.25;0.80;;;24.50;68.40;;;;;;10429277;28;20035;-57
2022/06/28 14:37:25;;;;;;;5.22;1.00;;;24.30;68.80;;;;;;10427127;28;20499;-60
2022/06/28 14:42:27;;;;;;;3.70;0.82;;;24.30;69.30;;;;;;10421800;28;20051;-58
2022/06/28 14:47:28;;;;;;;4.25;1.00;;;24.20;68.80;;;;;;10426164;28;20158;-66
2022/06/28 14:52:29;;;;;;;2.28;0.85;;;24.00;68.80;;;;;;10424185;28;20582;-59
2022/06/28 14:57:30;;;;;;;4.07;1.00;;;24.20;68.90;;;;;;10424218;28;20679;-59
2022/06/28 15:02:31;;;;;;;1.75;0.70;;;24.50;68.60;;;;;;10423675;28;20028;-64
2022/06/28 15:07:32;;;;;;;3.83;1.00;;;24.40;68.80;;;;;;10419161;28;20136;-58
2022/06/28 15:12:32;;;;;;;3.80;0.80;;;24.20;69.10;;;;;;10425642;28;20556;-60
2022/06/28 15:17:33;;;;;;;4.07;0.80;;;24.30;69.30;;;;;;10418037;28;20039;-58
2022/06/28 15:33:13;;;;;;;3.30;0.80;;;24.30;68.40;;;;;;10418810;28;20569;-62
2022/06/28 15:38:14;;;;;;;3.92;0.73;;;24.40;68.20;;;;;;10422601;28;20094;-68
2022/06/28 15:43:16;;;;;;;2.22;1.23;;;24.50;68.10;;;;;;10418845;28;20043;-69
2022/06/28 15:48:19;;;;;;;9.40;1.40;;;24.60;68.00;;;;;;10417855;28;20044;-59
2022/06/28 15:53:20;;;;;;;5.53;1.23;;;24.50;67.90;;;;;;10426206;28;20040;-63
2022/06/28 15:58:21;;;;;;;1.98;0.85;;;24.20;67.90;;;;;;10429298;28;20048;-70
2022/06/28 16:03:21;;;;;;;7.53;1.30;;;23.90;68.00;;;;;;10438381;28;21003;-63
2022/06/28 16:08:22;;;;;;;8.40;1.10;;;23.70;68.50;;;;;;10432459;28;20036;-59
2022/06/28 16:13:23;;;;;;;3.13;0.70;;;23.50;68.20;;;;;;10429228;28;20024;-60
2022/06/28 16:18:24;;;;;;;2.63;0.93;;;23.40;68.70;;;;;;10434172;28;20485;-59
2022/06/28 16:23:24;;;;;;;4.03;0.80;;;23.40;68.90;;;;;;10429297;28;20032;-59
2022/06/28 16:28:25;;;;;;;2.47;0.77;;;23.10;68.50;;;;;;10434531;28;20660;-67
2022/06/28 16:33:26;;;;;;;1.98;0.75;;;22.80;69.10;;;;;;10438210;28;20044;-59
2022/06/28 16:38:27;;;;;;;3.83;1.38;;;22.60;68.90;;;;;;10433663;28;20158;-59
2022/06/28 16:43:28;;;;;;;1.75;0.90;;;22.40;69.00;;;;;;10433947;28;20032;-59
2022/06/28 16:48:28;;;;;;;4.47;1.20;;;22.30;68.70;;;;;;10425003;28;20036;-66
2022/06/28 16:53:29;;;;;;;2.67;1.20;;;22.20;68.90;;;;;;10431457;28;21097;-63
2022/06/28 16:58:30;;;;;;;2.40;0.93;;;22.20;68.90;;;;;;10433350;28;20640;-65
2022/06/28 17:03:31;;;;;;;1.33;0.70;;;22.10;68.90;;;;;;10428813;28;20028;-59
2022/06/28 17:08:31;;;;;;;2.72;1.00;;;22.10;69.10;;;;;;10431118;28;20068;-60
2022/06/28 17:13:32;;;;;;;5.13;1.27;;;22.10;69.10;;;;;;10427929;28;20024;-59
2022/06/28 17:18:34;;;;;;;5.65;1.10;;;22.10;69.30;;;;;;10429476;28;20080;-61
2022/06/28 17:23:35;;;;;;;4.18;1.33;;;22.10;69.50;;;;;;10433280;28;20089;-61
2022/06/28 17:28:36;;;;;;;3.20;1.02;;;22.10;69.70;;;;;;10427141;28;20047;-61
2022/06/28 17:33:36;;;;;;;4.70;1.10;;;22.10;69.90;;;;;;10432952;28;20961;-60
2022/06/28 17:38:37;;;;;;;4.95;1.00;;;22.10;70.10;;;;;;10421340;28;20039;-61
2022/06/28 17:43:38;;;;;;;3.20;1.17;;;22.00;70.00;;;;;;10426974;28;20093;-61
2022/06/28 17:48:39;;;;;;;2.75;1.15;;;21.90;69.80;;;;;;10430414;28;20028;-63
2022/06/28 17:53:40;;;;;;;5.75;1.00;;;21.90;69.90;;;;;;10425650;28;20048;-64
2022/06/28 17:58:41;;;;;;;7.53;0.95;;;21.90;69.80;;;;;;10423286;28;20684;-62
2022/06/28 18:03:42;;;;;;;2.30;0.80;;;21.90;69.70;;;;;;10432964;28;20103;-60
2022/06/28 18:08:43;;;;;;;4.43;1.05;;;21.80;69.70;;;;;;10428292;28;20040;-63
2022/06/28 18:13:43;;;;;;;2.42;1.00;;;21.80;69.70;;;;;;10432502;28;20108;-61
2022/06/28 18:18:45;;;;;;;4.47;1.33;;;21.80;69.90;;;;;;10435074;28;20059;-65
2022/06/28 18:23:46;;;;;;;2.88;1.20;;;21.70;69.70;;;;;;10433521;28;20028;-60
2022/06/28 18:28:46;;;;;;;5.43;1.08;;;21.70;70.50;;;;;;10438197;28;20165;-61
2022/06/28 18:33:47;;;;;;;3.88;0.88;;;21.60;71.00;;;;;;10437994;28;20024;-60
2022/06/28 18:38:48;;;;;;;1.85;0.80;;;21.60;71.20;;;;;;10441918;28;20126;-59
2022/06/28 18:43:48;;;;;;;2.50;1.00;;;21.60;71.70;;;;;;10436466;28;20105;-60
2022/06/28 18:48:49;;;;;;;3.50;1.00;;;21.60;72.00;;;;;;10439872;28;20169;-67
2022/06/28 18:53:50;;;;;;;3.25;0.93;;;21.50;72.20;;;;;;10430124;28;20673;-71
2022/06/28 18:58:51;;;;;;;2.85;0.95;;;21.50;72.70;;;;;;10438143;28;20031;-61
2022/06/28 19:03:51;;;;;;;1.85;1.10;;;21.40;73.00;;;;;;10442198;28;20135;-60
2022/06/28 19:08:52;;;;;;;3.15;0.90;;;21.30;73.20;;;;;;10440434;28;20032;-61
2022/06/28 19:13:53;;;;;;;3.90;1.10;;;21.20;73.70;;;;;;10438584;28;20031;-59
2022/06/28 19:18:53;;;;;;;3.83;1.00;;;21.10;73.90;;;;;;10436961;28;20141;-64
2022/06/28 19:23:54;;;;;;;4.85;1.80;;;21.10;74.30;;;;;;10437178;28;20067;-67
2022/06/28 19:28:55;;;;;;;2.75;1.10;;;21.00;74.60;;;;;;10438346;28;20036;-60
2022/06/28 19:33:56;;;;;;;5.13;1.40;;;20.90;74.80;;;;;;10435310;28;20307;-65
2022/06/28 19:38:57;;;;;;;6.20;1.30;;;20.70;75.80;;;;;;10437019;28;20957;-63
2022/06/28 19:43:58;;;;;;;4.95;1.52;;;20.70;75.60;;;;;;10438997;28;20064;-61
2022/06/28 19:48:59;;;;;;;3.85;1.10;;;20.60;76.00;;;;;;10434043;28;20051;-71
2022/06/28 19:53:59;;;;;;;3.42;1.20;;;20.60;76.20;;;;;;10433600;28;20320;-59
2022/06/28 19:59:00;;;;;;;3.08;1.27;;;20.50;76.40;;;;;;10432708;28;20036;-60
2022/06/28 20:04:01;;;;;;;5.63;1.30;;;20.40;76.70;;;;;;10434465;28;20111;-57
2022/06/28 20:09:02;;;;;;;3.88;1.25;;;20.30;77.00;;;;;;10434440;28;20765;-62
2022/06/28 20:14:05;;;;;;;2.83;1.45;;;20.40;77.10;;;;;;10439932;28;20370;-65
2022/06/28 20:19:06;;;;;;;3.55;0.95;;;20.60;77.10;;;;;;10429191;28;20062;-58
2022/06/28 20:24:07;;;;;;;2.40;0.93;;;20.80;76.90;;;;;;10434591;28;20090;-60
2022/06/28 20:29:08;;;;;;;4.53;1.10;;;21.10;76.90;;;;;;10427621;28;20036;-62
2022/06/28 20:34:09;;;;;;;3.22;1.40;;;21.00;76.70;;;;;;10426647;28;20028;-61
2022/06/28 20:39:10;;;;;;;1.67;0.93;;;21.10;76.80;;;;;;10422709;28;20036;-65
2022/06/28 20:44:10;;;;;;;3.00;1.08;;;21.10;76.80;;;;;;10509181;28;21121;-59
2022/06/28 20:49:11;;;;;;;1.55;0.90;;;21.10;76.80;;;;;;10512624;28;20429;-58
2022/06/28 20:54:12;;;;;;;3.50;1.10;;;21.20;76.90;;;;;;10516280;28;20025;-62
2022/06/28 20:59:13;;;;;;;1.65;0.90;;;21.20;77.00;;;;;;10512596;28;20024;-59
2022/06/28 21:04:14;;;;;;;4.32;0.95;;;21.20;77.10;;;;;;10512343;28;20025;-60
2022/06/28 21:09:15;;;;;;;2.58;1.20;;;21.20;77.20;;;;;;10512703;28;20044;-57
2022/06/28 21:14:15;;;;;;;2.20;1.00;;;21.20;77.30;;;;;;10509147;28;20085;-67
2022/06/28 21:19:16;;;;;;;2.45;1.08;;;21.20;77.40;;;;;;10508930;28;20066;-67
2022/06/28 21:24:17;;;;;;;2.60;1.20;;;21.20;77.50;;;;;;10505705;28;20059;-67
2022/06/28 21:29:18;;;;;;;1.75;0.80;;;21.20;77.60;;;;;;10511606;28;20041;-59
2022/06/28 21:34:18;;;;;;;1.73;0.90;;;21.00;77.60;;;;;;10511530;28;20024;-57
2022/06/28 21:39:19;;;;;;;1.42;1.00;;;21.10;77.80;;;;;;10508458;28;20043;-60
2022/06/28 21:45:16;;;;;;;1.33;0.90;;;21.10;77.90;;;;;;10501317;28;20032;-68
2022/06/28 21:50:16;;;;;;;2.05;0.73;;;21.10;78.10;;;;;;10515860;28;20036;-66
2022/06/28 21:55:17;;;;;;;1.10;0.80;;;21.10;78.10;;;;;;10508419;28;20548;-63
2022/06/28 22:00:31;;;;;;;3.17;1.00;;;21.00;78.20;;;;;;10511470;28;20051;-68
2022/06/28 22:05:31;;;;;;;1.73;1.17;;;21.00;78.40;;;;;;10513159;28;20108;-69
2022/06/28 22:10:33;;;;;;;2.10;1.10;;;21.00;78.50;;;;;;10513177;28;20052;-67
2022/06/28 22:15:35;;;;;;;1.85;0.95;;;21.00;78.60;;;;;;10508373;28;20110;-61
2022/06/28 22:20:36;;;;;;;1.45;0.70;;;20.90;78.70;;;;;;10505772;28;20056;-69
2022/06/28 22:25:37;;;;;;;2.97;1.00;;;20.90;78.80;;;;;;10511157;28;20036;-68
2022/06/28 22:30:37;;;;;;;2.33;1.50;;;20.90;78.90;;;;;;10507420;28;20635;-69
2022/06/28 22:35:38;;;;;;;5.22;2.50;;;20.90;79.00;;;;;;10513784;28;20036;-58
2022/06/28 22:40:39;;;;;;;3.03;1.08;;;20.80;79.70;;;;;;10512207;28;20024;-58
2022/06/28 22:45:40;;;;;;;2.30;1.20;;;20.80;79.20;;;;;;10506299;28;20031;-59
2022/06/28 22:50:41;;;;;;;5.60;1.30;;;20.80;79.40;;;;;;10500238;28;20127;-63
2022/06/28 22:55:41;;;;;;;2.17;1.10;;;20.80;79.50;;;;;;10499003;28;20032;-65
2022/06/28 23:00:42;;;;;;;1.52;1.00;;;20.70;79.50;;;;;;10505380;28;20025;-58
2022/06/28 23:05:43;;;;;;;2.67;1.10;;;20.70;79.60;;;;;;10500377;28;20031;-68
2022/06/28 23:10:59;;;;;;;2.88;1.10;;;20.70;79.70;;;;;;10501896;28;20040;-68
2022/06/28 23:16:01;;;;;;;3.03;1.17;;;20.60;79.80;;;;;;10507346;28;20082;-65
2022/06/28 23:21:01;;;;;;;2.55;1.10;;;20.60;79.90;;;;;;10505613;28;20047;-69
2022/06/28 23:26:02;;;;;;;1.85;0.98;;;20.60;80.00;;;;;;10509102;28;20605;-68
2022/06/28 23:31:03;;;;;;;2.60;1.20;;;20.60;80.00;;;;;;10502297;28;20082;-69
2022/06/28 23:36:04;;;;;;;1.13;1.02;;;20.50;80.10;;;;;;10499841;28;20032;-69
2022/06/28 23:41:04;;;;;;;4.07;1.20;;;20.50;80.10;;;;;;10504246;28;20032;-65
2022/06/28 23:46:05;;;;;;;1.45;1.02;;;20.50;80.20;;;;;;10513924;28;20034;-66
2022/06/28 23:51:06;;;;;;;2.10;1.10;;;20.40;80.20;;;;;;10506120;28;20063;-71
2022/06/28 23:56:06;;;;;;;2.45;1.10;;;20.40;80.20;;;;;;10505828;28;20119;-62
